This is the latest recevied weather packets stored in our database for station/object K4OAM-13. If no packets are shown the sender has not sent any weather packets the latest 10 day(s).
| Time | Temp. | Humidity | Pressure | Rain* | Wind** | Luminosity | Snow |
|---|---|---|---|---|---|---|---|
| 1778114622 | 5.56° C | 81% | 1015.1 hPa | - | - | - | - |
| 1778112538 | 6.11° C | 81% | 1014.2 hPa | - | - | - | - |
| 1778111038 | 5.56° C | 88% | 1013.7 hPa | - | - | - | - |
| 1778109822 | 6.11° C | 86% | 1013.4 hPa | - | - | - | - |
| 1778108622 | 6.11° C | 91% | 1013.1 hPa | - | - | - | - |
| 1778108322 | 6.67° C | 91% | 1012.7 hPa | - | - | - | - |
| 1778107723 | 6.67° C | 90% | 1012.4 hPa | - | - | - | - |
| 1778105654 | 7.22° C | 85% | 1011.4 hPa | - | - | - | - |
| 1778105322 | 7.22° C | 85% | 1011.4 hPa | - | - | - | - |
| 1778102922 | 7.78° C | 84% | 1010.3 hPa | - | - | - | - |
| 1778100523 | 8.89° C | 85% | 1008.9 hPa | - | - | - | - |
| 1778099922 | 9.44° C | 87% | 1008.6 hPa | - | - | - | - |
| 1778099038 | 9.44° C | 89% | 1008.3 hPa | - | - | - | - |
| 1778098122 | 9.44° C | 89% | 1007.9 hPa | - | - | - | - |
| 1778097822 | 9.44° C | 89% | 1007.9 hPa | - | - | - | - |
| 1778096922 | 10° C | 91% | 1007.3 hPa | - | - | - | - |
| 1778095422 | 9.44° C | 93% | 1007 hPa | - | - | - | - |
| 1778093038 | 9.44° C | 94% | 1006.9 hPa | - | - | - | - |
| 1778091522 | 10° C | 96% | 1006.8 hPa | - | - | - | - |
| 1778091222 | 10° C | 95% | 1006.8 hPa | - | - | - | - |
| 1778090622 | 10° C | 93% | 1006.8 hPa | - | - | - | - |
| 1778089738 | 10° C | 91% | 1006.6 hPa | - | - | - | - |
| 1778086122 | 10° C | 92% | 1006.5 hPa | - | - | - | - |
| 1778084033 | 9.44° C | 95% | 1006.7 hPa | - | - | - | - |
| 1778081638 | 8.89° C | 98% | 1006.7 hPa | - | - | - | - |
* Rain since midnight (hover to see other rain measurements)
** Current wind speed in m/s (hover to see current wind gust speed)